DuBois Regional Airport Dubois US
ICAO: KDUJ
IATA: DUJ
Category: Medium
Scheduled Services: Yes

Elevation: 1817 ft
TransAlt. 18000 ft.

Airport Communications:
ASOS:119.025
CLEVELAND CNTR:126.72
CTAF:123
ALTOONA RDO:122.2
UNICOM:123

KDUJ Zoom In..

If you have problems with the map follow the link
https://www.worldairports.se/pages/airport.php?
ICAO=KDUJ

Runways:

(A) RW 07 length 5503 ft width 100 ft
---- / hdg 72

(B) RW 25 length 5503 ft width 100 ft
ILS 109.90 / hdg 252

Location; KDUJ
Day. 19 / Time. 21.53 Zulu
* Altimeter: 29.84
* Temperature: 27° c. 80.6°f.
* Wind from: 220° Speed 10 kn.
Dewpoint: 16° c.
Visibility: 10 Statute Miles.
Clouds: Few 5500 ft.

KDUJ 192153Z AUTO 22010KT 10SM FEW055 27/16 A2984 RMK AO2 SLP091 T02720161


Wind From 220°
Speed 10 kn.

 
 
jpsmedia.com for Web Design worldairports.se 2019   terms of use